sensor_id;sensor_type;location;lat;lon;timestamp;pressure;altitude;pressure_sealevel;temperature;humidity
13705;BME280;6924;52.122;9.952;2022-11-12T00:00:25;102158.13;;;7.01;84.00
13705;BME280;6924;52.122;9.952;2022-11-12T00:02:52;102165.97;;;6.99;84.11
13705;BME280;6924;52.122;9.952;2022-11-12T00:05:18;102159.13;;;6.95;84.55
13705;BME280;6924;52.122;9.952;2022-11-12T00:07:45;102156.56;;;6.94;84.74
13705;BME280;6924;52.122;9.952;2022-11-12T00:10:13;102166.38;;;6.91;84.74
13705;BME280;6924;52.122;9.952;2022-11-12T00:12:40;102167.50;;;6.90;84.72
13705;BME280;6924;52.122;9.952;2022-11-12T00:15:07;102159.28;;;6.89;85.25
13705;BME280;6924;52.122;9.952;2022-11-12T00:17:34;102165.41;;;6.86;85.73
13705;BME280;6924;52.122;9.952;2022-11-12T00:20:00;102160.66;;;6.86;86.10
13705;BME280;6924;52.122;9.952;2022-11-12T00:22:27;102162.59;;;6.86;86.17
13705;BME280;6924;52.122;9.952;2022-11-12T00:24:53;102159.19;;;6.83;86.19
13705;BME280;6924;52.122;9.952;2022-11-12T00:27:21;102165.69;;;6.84;86.01
13705;BME280;6924;52.122;9.952;2022-11-12T00:29:48;102174.59;;;6.81;86.28
13705;BME280;6924;52.122;9.952;2022-11-12T00:32:14;102174.00;;;6.79;86.19
13705;BME280;6924;52.122;9.952;2022-11-12T00:34:41;102175.94;;;6.78;86.47
13705;BME280;6924;52.122;9.952;2022-11-12T00:37:08;102175.34;;;6.76;86.40
13705;BME280;6924;52.122;9.952;2022-11-12T00:39:34;102178.44;;;6.75;86.31
13705;BME280;6924;52.122;9.952;2022-11-12T00:42:00;102186.75;;;6.70;85.78
13705;BME280;6924;52.122;9.952;2022-11-12T00:44:28;102184.91;;;6.63;86.03
13705;BME280;6924;52.122;9.952;2022-11-12T00:46:55;102179.28;;;6.63;86.44
13705;BME280;6924;52.122;9.952;2022-11-12T00:49:21;102184.59;;;6.60;86.42
13705;BME280;6924;52.122;9.952;2022-11-12T00:51:48;102180.94;;;6.59;86.55
13705;BME280;6924;52.122;9.952;2022-11-12T00:54:15;102187.03;;;6.56;86.98
13705;BME280;6924;52.122;9.952;2022-11-12T00:56:41;102183.28;;;6.51;86.93
13705;BME280;6924;52.122;9.952;2022-11-12T00:59:08;102186.31;;;6.49;86.89
13705;BME280;6924;52.122;9.952;2022-11-12T01:01:36;102192.78;;;6.50;87.07
13705;BME280;6924;52.122;9.952;2022-11-12T01:04:03;102190.25;;;6.48;87.12
13705;BME280;6924;52.122;9.952;2022-11-12T01:06:30;102188.28;;;6.49;87.03
13705;BME280;6924;52.122;9.952;2022-11-12T01:08:56;102182.91;;;6.47;86.97
13705;BME280;6924;52.122;9.952;2022-11-12T01:11:25;102184.03;;;6.46;86.65
13705;BME280;6924;52.122;9.952;2022-11-12T01:13:54;102196.34;;;6.45;86.78
13705;BME280;6924;52.122;9.952;2022-11-12T01:16:23;102198.31;;;6.45;86.85
13705;BME280;6924;52.122;9.952;2022-11-12T01:18:53;102198.53;;;6.43;87.39
13705;BME280;6924;52.122;9.952;2022-11-12T01:21:21;102195.75;;;6.43;86.90
13705;BME280;6924;52.122;9.952;2022-11-12T01:23:48;102201.50;;;6.36;87.48
13705;BME280;6924;52.122;9.952;2022-11-12T01:26:20;102196.72;;;6.37;87.52
13705;BME280;6924;52.122;9.952;2022-11-12T01:28:47;102201.25;;;6.38;87.72
13705;BME280;6924;52.122;9.952;2022-11-12T01:31:17;102202.84;;;6.34;88.17
13705;BME280;6924;52.122;9.952;2022-11-12T01:33:46;102198.69;;;6.36;88.01
13705;BME280;6924;52.122;9.952;2022-11-12T01:36:16;102198.06;;;6.34;88.23
13705;BME280;6924;52.122;9.952;2022-11-12T01:38:44;102198.34;;;6.33;87.88
13705;BME280;6924;52.122;9.952;2022-11-12T01:41:14;102203.69;;;6.34;88.11
13705;BME280;6924;52.122;9.952;2022-11-12T01:43:41;102199.78;;;6.35;88.53
13705;BME280;6924;52.122;9.952;2022-11-12T01:46:13;102200.03;;;6.34;88.51
13705;BME280;6924;52.122;9.952;2022-11-12T01:48:47;102202.84;;;6.34;88.53
13705;BME280;6924;52.122;9.952;2022-11-12T01:51:18;102197.84;;;6.36;88.77
13705;BME280;6924;52.122;9.952;2022-11-12T01:53:48;102199.53;;;6.37;89.26
13705;BME280;6924;52.122;9.952;2022-11-12T01:56:18;102194.50;;;6.39;89.66
13705;BME280;6924;52.122;9.952;2022-11-12T01:58:46;102181.59;;;6.38;90.22
13705;BME280;6924;52.122;9.952;2022-11-12T02:01:14;102182.66;;;6.37;90.17
13705;BME280;6924;52.122;9.952;2022-11-12T02:03:41;102185.47;;;6.37;90.37
13705;BME280;6924;52.122;9.952;2022-11-12T02:06:10;102184.41;;;6.38;90.73
13705;BME280;6924;52.122;9.952;2022-11-12T02:08:40;102185.13;;;6.33;90.60
13705;BME280;6924;52.122;9.952;2022-11-12T02:11:12;102190.75;;;6.33;90.36
13705;BME280;6924;52.122;9.952;2022-11-12T02:13:39;102185.13;;;6.33;90.14
13705;BME280;6924;52.122;9.952;2022-11-12T02:16:28;102181.47;;;6.33;90.06
13705;BME280;6924;52.122;9.952;2022-11-12T02:18:56;102181.22;;;6.34;90.22
13705;BME280;6924;52.122;9.952;2022-11-12T02:21:25;102180.72;;;6.37;90.79
13705;BME280;6924;52.122;9.952;2022-11-12T02:23:59;102178.78;;;6.38;91.64
13705;BME280;6924;52.122;9.952;2022-11-12T02:26:29;102175.44;;;6.41;91.91
13705;BME280;6924;52.122;9.952;2022-11-12T02:28:56;102175.22;;;6.43;92.24
13705;BME280;6924;52.122;9.952;2022-11-12T02:31:22;102173.25;;;6.43;91.92
13705;BME280;6924;52.122;9.952;2022-11-12T02:33:49;102181.69;;;6.43;92.03
13705;BME280;6924;52.122;9.952;2022-11-12T02:36:15;102178.88;;;6.43;91.92
13705;BME280;6924;52.122;9.952;2022-11-12T02:38:43;102181.06;;;6.41;91.77
13705;BME280;6924;52.122;9.952;2022-11-12T02:41:10;102179.84;;;6.37;91.93
13705;BME280;6924;52.122;9.952;2022-11-12T02:43:36;102182.66;;;6.37;90.86
13705;BME280;6924;52.122;9.952;2022-11-12T02:46:03;102180.13;;;6.35;90.52
13705;BME280;6924;52.122;9.952;2022-11-12T02:48:29;102180.38;;;6.34;90.32
13705;BME280;6924;52.122;9.952;2022-11-12T02:50:56;102183.16;;;6.34;90.15
13705;BME280;6924;52.122;9.952;2022-11-12T02:53:22;102186.22;;;6.32;89.58
13705;BME280;6924;52.122;9.952;2022-11-12T02:55:50;102180.25;;;6.29;89.33
13705;BME280;6924;52.122;9.952;2022-11-12T02:58:17;102176.84;;;6.27;89.37
13705;BME280;6924;52.122;9.952;2022-11-12T03:00:43;102177.06;;;6.25;89.55
13705;BME280;6924;52.122;9.952;2022-11-12T03:03:10;102180.38;;;6.22;89.29
13705;BME280;6924;52.122;9.952;2022-11-12T03:05:36;102180.03;;;6.18;89.56
13705;BME280;6924;52.122;9.952;2022-11-12T03:08:04;102178.78;;;6.14;89.60
13705;BME280;6924;52.122;9.952;2022-11-12T03:10:31;102178.78;;;6.14;89.31
13705;BME280;6924;52.122;9.952;2022-11-12T03:13:00;102178.44;;;6.11;89.28
13705;BME280;6924;52.122;9.952;2022-11-12T03:15:28;102173.53;;;6.06;89.34
13705;BME280;6924;52.122;9.952;2022-11-12T03:17:56;102171.47;;;6.02;89.27
13705;BME280;6924;52.122;9.952;2022-11-12T03:20:23;102173.44;;;6.01;89.24
13705;BME280;6924;52.122;9.952;2022-11-12T03:22:56;102159.38;;;6.01;89.79
13705;BME280;6924;52.122;9.952;2022-11-12T03:25:24;102165.00;;;6.01;90.10
13705;BME280;6924;52.122;9.952;2022-11-12T03:28:03;102172.59;;;6.00;90.18
13705;BME280;6924;52.122;9.952;2022-11-12T03:30:33;102177.34;;;6.00;90.02
13705;BME280;6924;52.122;9.952;2022-11-12T03:32:59;102179.38;;;5.93;90.27
13705;BME280;6924;52.122;9.952;2022-11-12T03:35:26;102181.09;;;5.94;90.07
13705;BME280;6924;52.122;9.952;2022-11-12T03:37:53;102182.19;;;5.93;90.11
13705;BME280;6924;52.122;9.952;2022-11-12T03:40:20;102181.09;;;5.94;90.01
13705;BME280;6924;52.122;9.952;2022-11-12T03:42:47;102177.69;;;5.92;89.82
13705;BME280;6924;52.122;9.952;2022-11-12T03:45:17;102172.31;;;5.90;89.87
13705;BME280;6924;52.122;9.952;2022-11-12T03:47:45;102171.22;;;5.91;90.42
13705;BME280;6924;52.122;9.952;2022-11-12T03:50:13;102167.72;;;5.96;92.95
13705;BME280;6924;52.122;9.952;2022-11-12T03:52:43;102176.75;;;5.98;93.39
13705;BME280;6924;52.122;9.952;2022-11-12T03:55:10;102166.13;;;6.00;93.93
13705;BME280;6924;52.122;9.952;2022-11-12T03:57:37;102170.63;;;6.01;93.51
13705;BME280;6924;52.122;9.952;2022-11-12T04:00:05;102170.63;;;6.01;93.33
13705;BME280;6924;52.122;9.952;2022-11-12T04:02:33;102172.81;;;5.99;92.45
13705;BME280;6924;52.122;9.952;2022-11-12T04:04:59;102172.47;;;5.95;92.00
13705;BME280;6924;52.122;9.952;2022-11-12T04:07:44;102172.06;;;5.92;91.75
13705;BME280;6924;52.122;9.952;2022-11-12T04:10:27;102166.06;;;5.88;91.36
13705;BME280;6924;52.122;9.952;2022-11-12T04:12:55;102182.06;;;5.88;90.71
13705;BME280;6924;52.122;9.952;2022-11-12T04:15:39;102176.56;;;5.81;91.10
13705;BME280;6924;52.122;9.952;2022-11-12T04:18:07;102164.13;;;5.77;90.95
13705;BME280;6924;52.122;9.952;2022-11-12T04:20:51;102164.97;;;5.77;90.45
13705;BME280;6924;52.122;9.952;2022-11-12T04:23:35;102158.50;;;5.77;90.67
13705;BME280;6924;52.122;9.952;2022-11-12T04:26:01;102159.00;;;5.74;90.53
13705;BME280;6924;52.122;9.952;2022-11-12T04:28:45;102155.97;;;5.75;90.63
13705;BME280;6924;52.122;9.952;2022-11-12T04:31:26;102159.00;;;5.74;89.90
13705;BME280;6924;52.122;9.952;2022-11-12T04:33:54;102158.28;;;5.67;90.43
13705;BME280;6924;52.122;9.952;2022-11-12T04:36:40;102164.13;;;5.65;90.30
13705;BME280;6924;52.122;9.952;2022-11-12T04:39:07;102161.78;;;5.62;90.46
13705;BME280;6924;52.122;9.952;2022-11-12T04:41:33;102157.06;;;5.63;90.21
13705;BME280;6924;52.122;9.952;2022-11-12T04:44:17;102169.63;;;5.60;89.44
13705;BME280;6924;52.122;9.952;2022-11-12T04:47:01;102163.41;;;5.58;89.45
13705;BME280;6924;52.122;9.952;2022-11-12T04:49:29;102164.72;;;5.55;89.16
13705;BME280;6924;52.122;9.952;2022-11-12T04:51:55;102166.94;;;5.53;89.57
13705;BME280;6924;52.122;9.952;2022-11-12T04:54:31;102161.78;;;5.50;89.42
13705;BME280;6924;52.122;9.952;2022-11-12T04:56:58;102165.56;;;5.44;88.79
13705;BME280;6924;52.122;9.952;2022-11-12T04:59:24;102167.75;;;5.42;89.61
13705;BME280;6924;52.122;9.952;2022-11-12T05:01:51;102173.72;;;5.34;89.09
13705;BME280;6924;52.122;9.952;2022-11-12T05:04:18;102171.75;;;5.34;89.53
13705;BME280;6924;52.122;9.952;2022-11-12T05:06:45;102167.50;;;5.32;89.40
13705;BME280;6924;52.122;9.952;2022-11-12T05:09:20;102164.53;;;5.27;89.37
13705;BME280;6924;52.122;9.952;2022-11-12T05:11:46;102172.09;;;5.26;89.62
13705;BME280;6924;52.122;9.952;2022-11-12T05:14:13;102168.94;;;5.23;89.24
13705;BME280;6924;52.122;9.952;2022-11-12T05:16:40;102164.19;;;5.23;89.80
13705;BME280;6924;52.122;9.952;2022-11-12T05:19:07;102169.06;;;5.16;89.62
13705;BME280;6924;52.122;9.952;2022-11-12T05:21:33;102169.75;;;5.11;89.40
13705;BME280;6924;52.122;9.952;2022-11-12T05:24:19;102162.56;;;5.15;89.39
13705;BME280;6924;52.122;9.952;2022-11-12T05:26:45;102160.38;;;5.17;88.99
13705;BME280;6924;52.122;9.952;2022-11-12T05:29:12;102159.13;;;5.13;88.78
13705;BME280;6924;52.122;9.952;2022-11-12T05:31:38;102172.81;;;5.10;89.25
13705;BME280;6924;52.122;9.952;2022-11-12T05:34:05;102174.28;;;5.12;88.65
13705;BME280;6924;52.122;9.952;2022-11-12T05:36:31;102175.00;;;5.08;88.68
13705;BME280;6924;52.122;9.952;2022-11-12T05:38:58;102164.22;;;5.05;88.50
13705;BME280;6924;52.122;9.952;2022-11-12T05:41:26;102177.03;;;5.01;89.27
13705;BME280;6924;52.122;9.952;2022-11-12T05:43:53;102165.56;;;5.02;88.71
13705;BME280;6924;52.122;9.952;2022-11-12T05:46:19;102167.53;;;5.02;88.75
13705;BME280;6924;52.122;9.952;2022-11-12T05:48:46;102172.13;;;4.96;88.63
13705;BME280;6924;52.122;9.952;2022-11-12T05:51:12;102169.59;;;4.94;89.32
13705;BME280;6924;52.122;9.952;2022-11-12T05:53:39;102170.66;;;4.93;88.92
13705;BME280;6924;52.122;9.952;2022-11-12T05:56:07;102176.88;;;4.95;88.86
13705;BME280;6924;52.122;9.952;2022-11-12T05:58:36;102166.78;;;4.94;89.92
13705;BME280;6924;52.122;9.952;2022-11-12T06:01:03;102152.97;;;4.93;89.20
13705;BME280;6924;52.122;9.952;2022-11-12T06:03:30;102155.66;;;4.88;89.79
13705;BME280;6924;52.122;9.952;2022-11-12T06:05:56;102167.09;;;4.86;89.74
13705;BME280;6924;52.122;9.952;2022-11-12T06:08:23;102167.72;;;4.88;89.86
13705;BME280;6924;52.122;9.952;2022-11-12T06:10:51;102164.06;;;4.88;89.57
13705;BME280;6924;52.122;9.952;2022-11-12T06:13:18;102165.53;;;4.90;90.45
13705;BME280;6924;52.122;9.952;2022-11-12T06:15:46;102163.69;;;4.84;89.83
13705;BME280;6924;52.122;9.952;2022-11-12T06:18:13;102160.88;;;4.84;90.03
13705;BME280;6924;52.122;9.952;2022-11-12T06:20:39;102159.19;;;4.83;90.81
13705;BME280;6924;52.122;9.952;2022-11-12T06:23:06;102160.66;;;4.86;90.82
13705;BME280;6924;52.122;9.952;2022-11-12T06:25:32;102167.31;;;4.85;90.32
13705;BME280;6924;52.122;9.952;2022-11-12T06:27:59;102171.00;;;4.85;90.97
13705;BME280;6924;52.122;9.952;2022-11-12T06:30:25;102174.53;;;4.81;91.17
13705;BME280;6924;52.122;9.952;2022-11-12T06:32:53;102176.00;;;4.83;90.74
13705;BME280;6924;52.122;9.952;2022-11-12T06:35:20;102171.25;;;4.84;91.00
13705;BME280;6924;52.122;9.952;2022-11-12T06:37:47;102183.78;;;4.81;91.12
13705;BME280;6924;52.122;9.952;2022-11-12T06:40:13;102191.81;;;4.78;91.11
13705;BME280;6924;52.122;9.952;2022-11-12T06:42:40;102198.25;;;4.78;91.42
13705;BME280;6924;52.122;9.952;2022-11-12T06:45:07;102194.84;;;4.76;91.87
13705;BME280;6924;52.122;9.952;2022-11-12T06:47:34;102194.16;;;4.81;91.77
13705;BME280;6924;52.122;9.952;2022-11-12T06:50:02;102192.66;;;4.78;91.97
13705;BME280;6924;52.122;9.952;2022-11-12T06:52:28;102198.25;;;4.78;92.22
13705;BME280;6924;52.122;9.952;2022-11-12T06:54:55;102199.50;;;4.82;92.38
13705;BME280;6924;52.122;9.952;2022-11-12T06:57:21;102187.22;;;4.83;92.60
13705;BME280;6924;52.122;9.952;2022-11-12T06:59:48;102197.44;;;4.89;92.93
13705;BME280;6924;52.122;9.952;2022-11-12T07:02:14;102196.38;;;4.90;92.80
13705;BME280;6924;52.122;9.952;2022-11-12T07:04:41;102200.66;;;4.93;93.58
13705;BME280;6924;52.122;9.952;2022-11-12T07:07:08;102200.88;;;4.91;93.24
13705;BME280;6924;52.122;9.952;2022-11-12T07:09:35;102199.09;;;4.97;93.26
13705;BME280;6924;52.122;9.952;2022-11-12T07:12:01;102199.22;;;5.02;94.31
13705;BME280;6924;52.122;9.952;2022-11-12T07:14:28;102205.22;;;5.06;94.72
13705;BME280;6924;52.122;9.952;2022-11-12T07:16:54;102200.47;;;5.06;94.12
13705;BME280;6924;52.122;9.952;2022-11-12T07:19:21;102196.94;;;5.11;94.84
13705;BME280;6924;52.122;9.952;2022-11-12T07:21:47;102191.72;;;5.14;95.42
13705;BME280;6924;52.122;9.952;2022-11-12T07:24:15;102194.03;;;5.17;95.61
13705;BME280;6924;52.122;9.952;2022-11-12T07:26:42;102201.72;;;5.22;96.23
13705;BME280;6924;52.122;9.952;2022-11-12T07:29:08;102204.69;;;5.27;96.62
13705;BME280;6924;52.122;9.952;2022-11-12T07:31:35;102205.94;;;5.31;97.09
13705;BME280;6924;52.122;9.952;2022-11-12T07:34:01;102211.44;;;5.38;97.12
13705;BME280;6924;52.122;9.952;2022-11-12T07:36:28;102210.22;;;5.46;97.93
13705;BME280;6924;52.122;9.952;2022-11-12T07:38:54;102211.22;;;5.51;98.41
13705;BME280;6924;52.122;9.952;2022-11-12T07:41:23;102204.88;;;5.56;98.96
13705;BME280;6924;52.122;9.952;2022-11-12T07:43:51;102206.69;;;5.62;99.11
13705;BME280;6924;52.122;9.952;2022-11-12T07:46:19;102193.91;;;5.66;99.46
13705;BME280;6924;52.122;9.952;2022-11-12T07:48:46;102203.69;;;5.75;99.88
13705;BME280;6924;52.122;9.952;2022-11-12T07:51:14;102188.03;;;5.79;99.79
13705;BME280;6924;52.122;9.952;2022-11-12T07:53:42;102196.34;;;5.86;100.00
13705;BME280;6924;52.122;9.952;2022-11-12T07:56:10;102193.22;;;5.94;100.00
13705;BME280;6924;52.122;9.952;2022-11-12T07:58:38;102198.25;;;6.04;100.00
13705;BME280;6924;52.122;9.952;2022-11-12T08:01:09;102197.50;;;6.09;100.00
13705;BME280;6924;52.122;9.952;2022-11-12T08:03:36;102204.69;;;6.16;100.00
13705;BME280;6924;52.122;9.952;2022-11-12T08:06:03;102212.75;;;6.25;100.00
13705;BME280;6924;52.122;9.952;2022-11-12T08:08:30;102206.50;;;6.34;100.00
13705;BME280;6924;52.122;9.952;2022-11-12T08:10:57;102208.72;;;6.44;100.00
13705;BME280;6924;52.122;9.952;2022-11-12T08:13:24;102204.16;;;6.55;100.00
13705;BME280;6924;52.122;9.952;2022-11-12T08:15:55;102209.75;;;6.67;100.00
13705;BME280;6924;52.122;9.952;2022-11-12T08:18:22;102219.00;;;6.79;99.59
13705;BME280;6924;52.122;9.952;2022-11-12T08:20:48;102219.22;;;6.89;99.13
13705;BME280;6924;52.122;9.952;2022-11-12T08:23:15;102215.50;;;7.00;98.98
13705;BME280;6924;52.122;9.952;2022-11-12T08:25:41;102218.00;;;7.14;98.99
13705;BME280;6924;52.122;9.952;2022-11-12T08:28:09;102216.84;;;7.27;98.52
13705;BME280;6924;52.122;9.952;2022-11-12T08:30:35;102220.97;;;7.36;96.51
13705;BME280;6924;52.122;9.952;2022-11-12T08:33:04;102216.38;;;7.47;96.32
13705;BME280;6924;52.122;9.952;2022-11-12T08:35:31;102216.03;;;7.60;97.19
13705;BME280;6924;52.122;9.952;2022-11-12T08:37:59;102204.19;;;7.75;96.75
13705;BME280;6924;52.122;9.952;2022-11-12T08:40:26;102215.47;;;7.92;96.83
13705;BME280;6924;52.122;9.952;2022-11-12T08:42:56;102208.34;;;8.06;97.23
13705;BME280;6924;52.122;9.952;2022-11-12T08:45:23;102208.84;;;8.20;97.29
13705;BME280;6924;52.122;9.952;2022-11-12T08:47:50;102206.00;;;8.37;97.11
13705;BME280;6924;52.122;9.952;2022-11-12T08:50:18;102198.38;;;8.54;94.79
13705;BME280;6924;52.122;9.952;2022-11-12T08:52:44;102194.38;;;8.72;94.30
13705;BME280;6924;52.122;9.952;2022-11-12T08:55:11;102196.28;;;8.88;92.17
13705;BME280;6924;52.122;9.952;2022-11-12T08:57:41;102202.97;;;9.04;92.65
13705;BME280;6924;52.122;9.952;2022-11-12T09:00:09;102200.31;;;9.20;92.02
13705;BME280;6924;52.122;9.952;2022-11-12T09:02:36;102203.53;;;9.34;91.57
13705;BME280;6924;52.122;9.952;2022-11-12T09:05:04;102199.47;;;9.51;90.52
13705;BME280;6924;52.122;9.952;2022-11-12T09:07:32;102200.75;;;9.66;88.96
13705;BME280;6924;52.122;9.952;2022-11-12T09:09:58;102203.44;;;9.83;88.03
13705;BME280;6924;52.122;9.952;2022-11-12T09:12:26;102195.38;;;9.97;87.67
13705;BME280;6924;52.122;9.952;2022-11-12T09:14:52;102194.06;;;10.14;87.34
13705;BME280;6924;52.122;9.952;2022-11-12T09:17:20;102202.69;;;10.30;86.47
13705;BME280;6924;52.122;9.952;2022-11-12T09:19:46;102199.38;;;10.43;85.66
13705;BME280;6924;52.122;9.952;2022-11-12T09:22:13;102196.56;;;10.53;85.19
13705;BME280;6924;52.122;9.952;2022-11-12T09:24:41;102192.41;;;10.66;84.93
13705;BME280;6924;52.122;9.952;2022-11-12T09:27:07;102196.44;;;10.81;83.19
13705;BME280;6924;52.122;9.952;2022-11-12T09:29:34;102199.00;;;10.87;81.84
13705;BME280;6924;52.122;9.952;2022-11-12T09:32:00;102202.13;;;10.91;82.42
13705;BME280;6924;52.122;9.952;2022-11-12T09:34:27;102205.56;;;10.98;82.66
13705;BME280;6924;52.122;9.952;2022-11-12T09:36:54;102209.25;;;10.99;82.81
13705;BME280;6924;52.122;9.952;2022-11-12T09:39:20;102214.34;;;11.02;82.89
13705;BME280;6924;52.122;9.952;2022-11-12T09:41:48;102214.56;;;10.85;81.57
13705;BME280;6924;52.122;9.952;2022-11-12T09:44:17;102209.50;;;10.97;81.19
13705;BME280;6924;52.122;9.952;2022-11-12T09:46:46;102208.72;;;11.12;80.31
13705;BME280;6924;52.122;9.952;2022-11-12T09:49:15;102211.59;;;11.22;79.85
13705;BME280;6924;52.122;9.952;2022-11-12T09:51:47;102203.09;;;11.27;80.13
13705;BME280;6924;52.122;9.952;2022-11-12T09:54:20;102217.53;;;11.26;79.88
13705;BME280;6924;52.122;9.952;2022-11-12T09:56:51;102213.84;;;11.25;80.10
13705;BME280;6924;52.122;9.952;2022-11-12T09:59:19;102211.31;;;11.44;80.07
13705;BME280;6924;52.122;9.952;2022-11-12T10:01:54;102211.06;;;11.61;80.12
13705;BME280;6924;52.122;9.952;2022-11-12T10:04:57;102219.31;;;11.83;78.88
13705;BME280;6924;52.122;9.952;2022-11-12T10:07:37;102219.91;;;11.90;77.52
13705;BME280;6924;52.122;9.952;2022-11-12T10:10:13;102225.59;;;11.95;77.25
13705;BME280;6924;52.122;9.952;2022-11-12T10:12:53;102223.59;;;11.96;77.37
13705;BME280;6924;52.122;9.952;2022-11-12T10:15:47;102224.69;;;12.10;78.79
13705;BME280;6924;52.122;9.952;2022-11-12T10:18:44;102214.50;;;12.19;77.87
13705;BME280;6924;52.122;9.952;2022-11-12T10:21:18;102212.50;;;12.20;77.08
13705;BME280;6924;52.122;9.952;2022-11-12T10:23:51;102222.16;;;12.24;77.41
13705;BME280;6924;52.122;9.952;2022-11-12T10:26:20;102210.78;;;12.29;76.82
13705;BME280;6924;52.122;9.952;2022-11-12T10:28:50;102206.28;;;12.28;78.01
13705;BME280;6924;52.122;9.952;2022-11-12T10:31:20;102207.38;;;12.32;78.32
13705;BME280;6924;52.122;9.952;2022-11-12T10:33:47;102200.88;;;12.37;78.86
13705;BME280;6924;52.122;9.952;2022-11-12T10:36:22;102202.53;;;12.43;78.43
13705;BME280;6924;52.122;9.952;2022-11-12T10:38:53;102199.38;;;12.50;78.89
13705;BME280;6924;52.122;9.952;2022-11-12T10:41:23;102197.41;;;12.55;77.95
13705;BME280;6924;52.122;9.952;2022-11-12T10:43:59;102193.69;;;12.60;78.67
13705;BME280;6924;52.122;9.952;2022-11-12T10:46:27;102188.81;;;12.71;78.54
13705;BME280;6924;52.122;9.952;2022-11-12T10:49:00;102187.91;;;12.80;77.99
13705;BME280;6924;52.122;9.952;2022-11-12T10:51:30;102189.88;;;12.90;78.32
13705;BME280;6924;52.122;9.952;2022-11-12T10:53:57;102184.72;;;12.97;77.07
13705;BME280;6924;52.122;9.952;2022-11-12T10:56:27;102176.47;;;13.01;74.81
13705;BME280;6924;52.122;9.952;2022-11-12T10:59:14;102174.16;;;13.08;74.52
13705;BME280;6924;52.122;9.952;2022-11-12T11:01:41;102164.75;;;13.13;73.20
13705;BME280;6924;52.122;9.952;2022-11-12T11:04:18;102162.75;;;13.13;73.33
13705;BME280;6924;52.122;9.952;2022-11-12T11:06:56;102171.50;;;13.22;73.71
13705;BME280;6924;52.122;9.952;2022-11-12T11:09:24;102164.94;;;13.27;73.12
13705;BME280;6924;52.122;9.952;2022-11-12T11:11:52;102156.41;;;13.27;72.62
13705;BME280;6924;52.122;9.952;2022-11-12T11:14:26;102148.75;;;13.32;73.36
13705;BME280;6924;52.122;9.952;2022-11-12T11:16:54;102145.88;;;13.37;72.84
13705;BME280;6924;52.122;9.952;2022-11-12T11:19:30;102152.66;;;13.41;72.45
13705;BME280;6924;52.122;9.952;2022-11-12T11:22:08;102151.22;;;13.44;71.00
13705;BME280;6924;52.122;9.952;2022-11-12T11:24:46;102158.28;;;13.47;70.27
13705;BME280;6924;52.122;9.952;2022-11-12T11:27:26;102160.56;;;13.50;71.94
13705;BME280;6924;52.122;9.952;2022-11-12T11:30:11;102148.88;;;13.51;72.09
13705;BME280;6924;52.122;9.952;2022-11-12T11:36:01;102140.28;;;13.61;71.50
13705;BME280;6924;52.122;9.952;2022-11-12T11:38:34;102126.00;;;13.67;70.01
13705;BME280;6924;52.122;9.952;2022-11-12T11:41:17;102134.25;;;13.68;70.12
13705;BME280;6924;52.122;9.952;2022-11-12T11:43:55;102139.03;;;13.73;69.81
13705;BME280;6924;52.122;9.952;2022-11-12T11:46:39;102135.06;;;13.74;69.55
13705;BME280;6924;52.122;9.952;2022-11-12T11:49:25;102127.31;;;13.79;68.82
13705;BME280;6924;52.122;9.952;2022-11-12T11:52:01;102134.09;;;13.83;68.77
13705;BME280;6924;52.122;9.952;2022-11-12T11:54:45;102129.22;;;13.89;69.95
13705;BME280;6924;52.122;9.952;2022-11-12T11:57:21;102120.69;;;13.89;69.93
13705;BME280;6924;52.122;9.952;2022-11-12T12:00:02;102134.38;;;13.87;69.31
13705;BME280;6924;52.122;9.952;2022-11-12T12:02:42;102118.69;;;13.90;68.88
13705;BME280;6924;52.122;9.952;2022-11-12T12:05:25;102122.03;;;13.97;68.75
13705;BME280;6924;52.122;9.952;2022-11-12T12:08:01;102109.19;;;13.99;68.10
13705;BME280;6924;52.122;9.952;2022-11-12T12:10:38;102116.00;;;14.03;68.69
13705;BME280;6924;52.122;9.952;2022-11-12T12:13:12;102109.16;;;14.04;68.51
13705;BME280;6924;52.122;9.952;2022-11-12T12:15:56;102111.19;;;13.99;68.91
13705;BME280;6924;52.122;9.952;2022-11-12T12:18:33;102098.38;;;14.01;68.05
13705;BME280;6924;52.122;9.952;2022-11-12T12:21:05;102091.03;;;13.95;67.82
13705;BME280;6924;52.122;9.952;2022-11-12T12:23:36;102092.53;;;13.88;68.02
13705;BME280;6924;52.122;9.952;2022-11-12T12:26:11;102097.94;;;13.89;68.27
13705;BME280;6924;52.122;9.952;2022-11-12T12:28:43;102090.81;;;13.92;67.96
13705;BME280;6924;52.122;9.952;2022-11-12T12:31:13;102089.97;;;13.91;67.19
13705;BME280;6924;52.122;9.952;2022-11-12T12:33:46;102082.56;;;13.90;66.95
13705;BME280;6924;52.122;9.952;2022-11-12T12:36:17;102087.22;;;13.81;66.89
13705;BME280;6924;52.122;9.952;2022-11-12T12:38:48;102085.81;;;13.78;67.23
13705;BME280;6924;52.122;9.952;2022-11-12T12:41:20;102086.13;;;13.77;67.61
13705;BME280;6924;52.122;9.952;2022-11-12T12:43:53;102078.47;;;13.72;67.44
13705;BME280;6924;52.122;9.952;2022-11-12T12:46:23;102083.31;;;13.72;67.71
13705;BME280;6924;52.122;9.952;2022-11-12T12:48:53;102082.81;;;13.64;67.91
13705;BME280;6924;52.122;9.952;2022-11-12T12:51:21;102076.34;;;13.59;67.21
13705;BME280;6924;52.122;9.952;2022-11-12T12:53:47;102077.47;;;13.58;67.46
13705;BME280;6924;52.122;9.952;2022-11-12T12:56:42;102090.28;;;13.55;68.04
13705;BME280;6924;52.122;9.952;2022-11-12T12:59:18;102091.19;;;13.51;68.49
13705;BME280;6924;52.122;9.952;2022-11-12T13:01:54;102073.28;;;13.50;68.00
13705;BME280;6924;52.122;9.952;2022-11-12T13:04:51;102077.22;;;13.54;68.87
13705;BME280;6924;52.122;9.952;2022-11-12T13:07:22;102085.75;;;13.54;68.72
13705;BME280;6924;52.122;9.952;2022-11-12T13:13:30;102088.06;;;13.52;69.52
13705;BME280;6924;52.122;9.952;2022-11-12T13:15:58;102080.97;;;13.50;69.45
13705;BME280;6924;52.122;9.952;2022-11-12T13:18:59;102078.41;;;13.48;69.83
13705;BME280;6924;52.122;9.952;2022-11-12T13:21:28;102081.25;;;13.48;69.10
13705;BME280;6924;52.122;9.952;2022-11-12T13:23:57;102087.00;;;13.43;69.87
13705;BME280;6924;52.122;9.952;2022-11-12T13:26:49;102095.88;;;13.36;70.60
13705;BME280;6924;52.122;9.952;2022-11-12T13:29:24;102086.53;;;13.31;70.97